Time;durP1;ratioP1;P1;durP2;ratioP2;P2;SDS_P1;SDS_P2;PMS_P1;PMS_P2;Temp;Humidity;BMP_temperature;BMP_pressure;BME280_temperature;BME280_humidity;BME280_pressure;Samples;Min_cycle;Max_cycle;Signal;HPM_P1;HPM_P2
2023/05/21 00:00:41;;;;;;;2.03;1.90;;;15.30;99.90;;;;;;5013128;28;20179;-69
2023/05/21 00:03:12;;;;;;;4.67;2.43;;;15.30;99.90;;;;;;5013012;28;20253;-69
2023/05/21 00:05:39;;;;;;;2.60;2.40;;;15.30;99.90;;;;;;5013093;28;20259;-70
2023/05/21 00:08:05;;;;;;;2.43;2.20;;;15.30;99.90;;;;;;5015074;28;20509;-70
2023/05/21 00:10:30;;;;;;;2.60;2.40;;;15.30;99.90;;;;;;5017038;28;20409;-69
2023/05/21 00:12:56;;;;;;;1.97;1.87;;;15.30;99.90;;;;;;5016705;28;20294;-70
2023/05/21 00:15:22;;;;;;;6.57;3.00;;;15.40;99.90;;;;;;5016657;28;20763;-70
2023/05/21 00:17:47;;;;;;;3.20;2.10;;;15.40;99.90;;;;;;4999128;28;20187;-69
2023/05/21 00:20:13;;;;;;;2.47;1.83;;;15.40;99.90;;;;;;5017087;28;20181;-69
2023/05/21 00:22:41;;;;;;;1.83;1.73;;;15.40;99.90;;;;;;5016594;28;20195;-70
2023/05/21 00:25:07;;;;;;;3.77;1.70;;;15.30;99.90;;;;;;5016575;28;20183;-69
2023/05/21 00:27:33;;;;;;;2.70;2.50;;;15.40;99.90;;;;;;5016486;28;20763;-70
2023/05/21 00:29:58;;;;;;;2.40;2.20;;;15.30;99.90;;;;;;5016459;28;20411;-69
2023/05/21 00:32:24;;;;;;;1.80;1.70;;;15.40;99.90;;;;;;5016507;28;20188;-69
2023/05/21 00:34:50;;;;;;;2.97;2.77;;;15.40;99.90;;;;;;5015160;28;20178;-70
2023/05/21 00:37:15;;;;;;;2.03;1.90;;;15.50;99.90;;;;;;5016250;28;20175;-69
2023/05/21 00:39:41;;;;;;;1.97;1.87;;;15.50;99.90;;;;;;5016296;28;20233;-69
2023/05/21 00:42:07;;;;;;;1.93;1.83;;;15.50;99.80;;;;;;5016263;28;20234;-70
2023/05/21 00:44:34;;;;;;;1.67;1.57;;;15.60;99.90;;;;;;5016236;28;20521;-70
2023/05/21 00:47:02;;;;;;;2.60;2.40;;;15.60;99.90;;;;;;5016018;28;20561;-69
2023/05/21 00:49:29;;;;;;;3.03;2.83;;;15.60;99.90;;;;;;5016135;28;20461;-70
2023/05/21 00:51:55;;;;;;;2.60;2.40;;;15.60;99.90;;;;;;5016180;28;20454;-70
2023/05/21 00:54:22;;;;;;;3.17;2.97;;;15.60;99.90;;;;;;5016062;28;20836;-69
2023/05/21 00:56:49;;;;;;;1.40;1.23;;;15.70;99.90;;;;;;5015872;28;20419;-70
2023/05/21 00:59:15;;;;;;;3.30;1.83;;;15.60;99.90;;;;;;5016174;28;20418;-70
2023/05/21 01:01:44;;;;;;;3.07;2.30;;;15.60;99.90;;;;;;5016244;28;20936;-70
2023/05/21 01:04:10;;;;;;;1.23;1.13;;;15.60;99.90;;;;;;5016006;28;20447;-70
2023/05/21 01:06:37;;;;;;;3.03;2.83;;;15.60;99.90;;;;;;5015716;28;20421;-69
2023/05/21 01:09:05;;;;;;;3.60;2.73;;;15.50;99.90;;;;;;5015789;28;20464;-70
2023/05/21 01:11:40;;;;;;;1.80;1.70;;;15.50;99.90;;;;;;5015763;28;20457;-70
2023/05/21 01:14:09;;;;;;;3.30;3.07;;;15.50;99.90;;;;;;5015636;28;20496;-69
2023/05/21 01:16:36;;;;;;;1.97;1.80;;;15.50;99.90;;;;;;5015524;28;20409;-70
2023/05/21 01:19:03;;;;;;;2.40;2.30;;;15.40;99.90;;;;;;5014401;28;20525;-70
2023/05/21 01:21:29;;;;;;;2.67;2.47;;;15.30;99.90;;;;;;5015625;28;20429;-70
2023/05/21 01:23:55;;;;;;;3.97;3.50;;;15.20;99.90;;;;;;5015481;28;20749;-70
2023/05/21 01:26:21;;;;;;;4.33;4.03;;;;;;;;;;5015350;28;20461;-69
2023/05/21 01:28:47;;;;;;;4.17;3.60;;;15.10;99.90;;;;;;5015533;28;20206;-70
2023/05/21 01:31:55;;;;;;;2.80;2.60;;;15.10;99.90;;;;;;5015441;28;20488;-70
2023/05/21 01:34:25;;;;;;;4.93;2.20;;;15.10;99.90;;;;;;4984941;28;20188;-69
2023/05/21 01:37:00;;;;;;;2.23;2.10;;;15.00;99.90;;;;;;5015267;28;20490;-70
2023/05/21 01:39:35;;;;;;;2.60;2.27;;;15.00;99.90;;;;;;5015197;28;20437;-69
2023/05/21 01:42:04;;;;;;;3.17;2.40;;;15.00;99.90;;;;;;5015337;28;20440;-69
2023/05/21 01:44:32;;;;;;;3.50;3.30;;;14.90;99.90;;;;;;5015359;28;20406;-70
2023/05/21 01:46:59;;;;;;;3.27;2.90;;;15.00;99.90;;;;;;5015026;28;20426;-69
2023/05/21 01:49:25;;;;;;;4.23;2.77;;;14.90;99.90;;;;;;5015062;28;20457;-69
2023/05/21 01:51:50;;;;;;;2.60;2.40;;;14.80;99.90;;;;;;5015171;28;20489;-69
2023/05/21 01:54:16;;;;;;;3.37;3.13;;;14.80;99.90;;;;;;5015156;28;20403;-70
2023/05/21 01:56:42;;;;;;;2.43;2.23;;;14.80;99.90;;;;;;5014774;28;20168;-69
2023/05/21 01:59:07;;;;;;;3.47;2.50;;;14.70;99.90;;;;;;5015102;28;20232;-70
2023/05/21 02:01:33;;;;;;;3.10;2.33;;;14.60;99.90;;;;;;5014901;28;20274;-69
2023/05/21 02:03:59;;;;;;;2.87;2.67;;;14.60;99.90;;;;;;5015109;28;20177;-69
2023/05/21 02:06:25;;;;;;;5.63;5.13;;;14.50;99.90;;;;;;5014963;28;20175;-70
2023/05/21 02:08:50;;;;;;;1.67;1.57;;;14.50;99.90;;;;;;5014686;28;20667;-70
2023/05/21 02:11:16;;;;;;;2.83;2.00;;;14.50;99.90;;;;;;5014735;28;20508;-70
2023/05/21 02:13:44;;;;;;;1.77;1.67;;;14.50;99.90;;;;;;5014787;28;20187;-70
2023/05/21 02:16:13;;;;;;;3.33;2.90;;;14.40;99.90;;;;;;5014552;28;20544;-69
2023/05/21 02:18:42;;;;;;;1.57;1.47;;;14.30;99.90;;;;;;5014577;28;20415;-70
2023/05/21 02:21:08;;;;;;;3.00;2.67;;;14.30;99.90;;;;;;5014611;28;20841;-69
2023/05/21 02:23:34;;;;;;;7.03;2.63;;;14.20;99.90;;;;;;5014615;28;20410;-69
2023/05/21 02:26:00;;;;;;;3.10;2.90;;;14.10;99.90;;;;;;5014451;28;20465;-69
2023/05/21 02:28:26;;;;;;;1.90;1.80;;;14.10;99.90;;;;;;5014525;28;20533;-70
2023/05/21 02:30:51;;;;;;;7.03;3.40;;;14.10;99.90;;;;;;5014022;28;20193;-69
2023/05/21 02:33:18;;;;;;;7.40;3.57;;;14.10;99.90;;;;;;5014457;28;20585;-70
2023/05/21 02:35:44;;;;;;;7.07;2.80;;;14.10;99.90;;;;;;5014309;28;20541;-70
2023/05/21 02:38:12;;;;;;;1.93;1.83;;;14.00;99.90;;;;;;5014468;28;20418;-69
2023/05/21 02:40:38;;;;;;;3.60;2.50;;;14.00;99.90;;;;;;5014329;28;20177;-69
2023/05/21 02:43:04;;;;;;;2.93;1.87;;;14.00;99.90;;;;;;4996431;28;20446;-70
2023/05/21 02:45:30;;;;;;;4.80;2.50;;;14.00;99.90;;;;;;5014030;28;20411;-69
2023/05/21 02:47:55;;;;;;;2.07;1.93;;;13.90;99.90;;;;;;5014039;28;20806;-70
2023/05/21 02:50:21;;;;;;;3.80;3.20;;;13.90;99.90;;;;;;5014189;28;20625;-70
2023/05/21 02:52:47;;;;;;;2.70;2.40;;;13.80;99.90;;;;;;5014029;28;20649;-70
2023/05/21 02:55:13;;;;;;;3.53;3.33;;;13.80;99.90;;;;;;5014171;28;20413;-70
2023/05/21 02:57:38;;;;;;;2.13;2.03;;;13.70;99.90;;;;;;5013963;28;20406;-69
2023/05/21 03:00:08;;;;;;;2.93;2.73;;;13.80;99.90;;;;;;5013931;28;20190;-70
2023/05/21 03:02:33;;;;;;;2.10;1.57;;;13.70;99.90;;;;;;5013787;28;20193;-69
2023/05/21 03:04:59;;;;;;;4.73;3.30;;;13.70;99.90;;;;;;5014181;28;20398;-69
2023/05/21 03:07:25;;;;;;;3.07;2.30;;;13.60;99.90;;;;;;5013662;28;20249;-70
2023/05/21 03:09:51;;;;;;;5.73;4.07;;;13.60;99.90;;;;;;5013953;28;20402;-69
2023/05/21 03:12:16;;;;;;;4.00;3.47;;;13.60;99.90;;;;;;5013630;28;20512;-69
2023/05/21 03:14:43;;;;;;;2.57;2.37;;;13.60;99.90;;;;;;5013932;28;20182;-69
2023/05/21 03:17:12;;;;;;;3.37;2.70;;;13.60;99.90;;;;;;5013588;28;20178;-69
2023/05/21 03:19:42;;;;;;;3.43;3.17;;;13.60;99.90;;;;;;5013818;28;20502;-70
2023/05/21 03:22:09;;;;;;;5.60;3.10;;;13.60;99.90;;;;;;5013641;28;20503;-69
2023/05/21 03:24:35;;;;;;;4.30;4.00;;;13.50;99.90;;;;;;5013618;28;20421;-69
2023/05/21 03:27:01;;;;;;;2.43;2.30;;;13.50;99.90;;;;;;5013351;28;20537;-70
2023/05/21 03:29:27;;;;;;;4.23;3.83;;;13.40;99.90;;;;;;5009859;28;20548;-69
2023/05/21 03:31:54;;;;;;;2.93;2.73;;;13.30;99.90;;;;;;5013157;28;20432;-69
2023/05/21 03:34:20;;;;;;;2.73;2.17;;;13.20;99.90;;;;;;5013525;28;20417;-69
2023/05/21 03:36:46;;;;;;;2.80;2.70;;;13.10;99.90;;;;;;5011751;28;20783;-69
2023/05/21 03:39:12;;;;;;;2.57;2.43;;;13.10;99.90;;;;;;5013426;28;20414;-69
2023/05/21 03:41:37;;;;;;;13.97;3.57;;;13.20;99.90;;;;;;5013418;28;20437;-69
2023/05/21 03:44:03;;;;;;;4.37;2.80;;;13.10;99.90;;;;;;5017280;28;20212;-69
2023/05/21 03:46:29;;;;;;;2.93;2.73;;;13.10;99.90;;;;;;4999688;28;20361;-70
2023/05/21 03:48:56;;;;;;;3.17;2.83;;;13.10;99.90;;;;;;5017405;28;20446;-69
2023/05/21 03:51:23;;;;;;;3.03;2.20;;;13.10;99.90;;;;;;5017450;28;20217;-69
2023/05/21 03:53:49;;;;;;;2.27;2.03;;;13.00;99.90;;;;;;5017330;28;20402;-69
2023/05/21 03:56:15;;;;;;;3.10;1.53;;;13.10;99.90;;;;;;5017528;28;20412;-69
2023/05/21 03:58:40;;;;;;;2.53;1.67;;;13.10;99.90;;;;;;5017503;28;20414;-69
2023/05/21 04:01:07;;;;;;;3.50;3.20;;;13.00;99.90;;;;;;5017449;28;20194;-69
2023/05/21 04:03:34;;;;;;;2.20;2.10;;;12.90;99.90;;;;;;5017156;28;20202;-70
2023/05/21 04:06:00;;;;;;;4.23;3.47;;;12.80;99.90;;;;;;5016937;28;20439;-70
2023/05/21 04:08:26;;;;;;;2.87;2.53;;;12.70;99.90;;;;;;5016985;28;20823;-70
2023/05/21 04:10:51;;;;;;;6.17;3.47;;;12.80;99.90;;;;;;5016973;28;20409;-69
2023/05/21 04:13:17;;;;;;;0.90;0.90;;;12.80;99.90;;;;;;5016910;28;20186;-69
2023/05/21 04:15:45;;;;;;;4.23;3.93;;;12.80;99.90;;;;;;5016804;28;20186;-70
2023/05/21 04:18:15;;;;;;;3.20;2.80;;;12.80;99.90;;;;;;5016984;28;20171;-69
2023/05/21 04:20:41;;;;;;;2.40;2.20;;;12.70;99.90;;;;;;5017016;28;20410;-69
2023/05/21 04:23:08;;;;;;;2.00;1.90;;;12.80;99.90;;;;;;5016886;28;20970;-69
2023/05/21 04:25:33;;;;;;;4.97;2.63;;;12.80;99.90;;;;;;5016599;28;20409;-69
2023/05/21 04:27:59;;;;;;;3.70;2.07;;;12.90;99.90;;;;;;5016694;28;20813;-70
2023/05/21 04:30:25;;;;;;;3.70;3.40;;;12.80;99.90;;;;;;5016827;28;20266;-70
2023/05/21 04:32:51;;;;;;;5.37;3.53;;;12.90;99.90;;;;;;5016583;28;20219;-70
2023/05/21 04:35:17;;;;;;;4.43;4.13;;;12.80;99.90;;;;;;5016686;28;20198;-70
2023/05/21 04:37:44;;;;;;;6.17;3.73;;;12.80;99.90;;;;;;5016292;28;20433;-70
2023/05/21 04:40:16;;;;;;;1.90;1.80;;;12.90;99.90;;;;;;5016448;28;20175;-69
2023/05/21 04:42:49;;;;;;;2.67;2.30;;;12.90;99.90;;;;;;5016476;28;20436;-69
2023/05/21 04:45:16;;;;;;;2.97;2.77;;;13.10;99.90;;;;;;5016683;28;20413;-70
2023/05/21 04:47:42;;;;;;;4.43;4.03;;;13.20;99.90;;;;;;5016132;28;20416;-69
2023/05/21 04:50:09;;;;;;;3.20;1.90;;;13.30;99.90;;;;;;5016261;28;20833;-69
2023/05/21 04:52:35;;;;;;;3.03;2.47;;;13.50;99.90;;;;;;5015238;28;20246;-69
2023/05/21 04:55:01;;;;;;;3.57;2.83;;;13.50;99.90;;;;;;5014419;28;20545;-69
2023/05/21 04:57:28;;;;;;;2.40;2.30;;;13.70;99.90;;;;;;5015425;28;20417;-70
2023/05/21 04:59:55;;;;;;;2.13;2.03;;;13.70;99.90;;;;;;5015525;28;20497;-70
2023/05/21 05:02:20;;;;;;;3.47;3.17;;;13.70;99.90;;;;;;5015392;28;20809;-70
2023/05/21 05:04:46;;;;;;;4.07;3.77;;;13.90;99.90;;;;;;5015457;28;20412;-70
2023/05/21 05:07:12;;;;;;;3.27;2.50;;;14.00;99.90;;;;;;5015221;28;20642;-70
2023/05/21 05:09:38;;;;;;;2.37;2.27;;;14.20;99.90;;;;;;5015961;28;20210;-70
2023/05/21 05:12:04;;;;;;;2.67;2.30;;;14.40;99.90;;;;;;5015764;28;20449;-71
2023/05/21 05:14:29;;;;;;;7.17;3.50;;;14.50;99.90;;;;;;5014201;28;20545;-70
2023/05/21 05:16:59;;;;;;;2.60;2.50;;;14.60;99.90;;;;;;5015370;28;20413;-70
2023/05/21 05:19:25;;;;;;;6.67;4.17;;;14.80;99.90;;;;;;5013973;28;20467;-70
2023/05/21 05:21:51;;;;;;;4.30;2.70;;;15.20;99.90;;;;;;5014623;28;20434;-70
2023/05/21 05:24:16;;;;;;;3.77;3.57;;;15.60;99.90;;;;;;5015935;28;20754;-70
2023/05/21 05:26:42;;;;;;;2.40;2.03;;;16.00;99.90;;;;;;5015510;28;20525;-70
2023/05/21 05:29:07;;;;;;;1.83;1.53;;;16.40;99.90;;;;;;5015648;28;20195;-68
2023/05/21 05:31:33;;;;;;;2.60;2.40;;;16.80;99.10;;;;;;5015563;28;20201;-69
2023/05/21 05:33:59;;;;;;;3.73;2.60;;;17.20;99.00;;;;;;5015743;28;20189;-69
2023/05/21 05:36:25;;;;;;;2.50;2.40;;;17.70;98.60;;;;;;5015350;28;20253;-68
2023/05/21 05:38:51;;;;;;;2.47;2.20;;;18.00;97.70;;;;;;5014394;28;20174;-70
2023/05/21 05:41:17;;;;;;;2.03;1.93;;;18.20;96.50;;;;;;5014966;28;20785;-73
2023/05/21 05:43:43;;;;;;;3.63;2.47;;;18.30;96.30;;;;;;5015248;28;20468;-72
2023/05/21 05:46:08;;;;;;;2.70;2.57;;;18.50;96.00;;;;;;5013483;28;20175;-73
2023/05/21 05:48:34;;;;;;;1.30;1.20;;;18.60;94.50;;;;;;5015207;28;20294;-73
2023/05/21 05:51:00;;;;;;;1.93;1.80;;;18.80;99.90;;;;;;5015122;28;20180;-71
2023/05/21 05:53:25;;;;;;;2.70;1.70;;;18.60;95.30;;;;;;5015183;28;20171;-73
2023/05/21 05:55:51;;;;;;;5.17;3.07;;;19.00;95.00;;;;;;5014973;28;20169;-73
2023/05/21 05:58:17;;;;;;;1.87;1.73;;;19.40;94.10;;;;;;5015141;28;20647;-73
2023/05/21 06:00:43;;;;;;;2.37;2.17;;;19.40;92.80;;;;;;5014850;28;20185;-71
2023/05/21 06:03:08;;;;;;;2.63;2.37;;;19.40;93.10;;;;;;5014902;28;20200;-73
2023/05/21 06:05:34;;;;;;;3.10;1.87;;;19.40;93.10;;;;;;5014016;28;20186;-72
2023/05/21 06:08:00;;;;;;;2.00;1.90;;;19.40;93.50;;;;;;5014881;28;20203;-73
2023/05/21 06:10:25;;;;;;;2.00;1.90;;;19.60;93.40;;;;;;5014954;28;20265;-73
2023/05/21 06:12:51;;;;;;;2.00;1.90;;;19.90;93.40;;;;;;5014601;28;20453;-73
2023/05/21 06:15:18;;;;;;;1.80;1.70;;;20.30;93.30;;;;;;5014681;28;20184;-73
2023/05/21 06:17:43;;;;;;;2.57;2.37;;;20.90;92.50;;;;;;5014525;28;20229;-73
2023/05/21 06:20:10;;;;;;;1.63;1.53;;;21.40;91.90;;;;;;5014799;28;20406;-74
2023/05/21 06:22:35;;;;;;;3.13;1.87;;;22.10;91.20;;;;;;5014650;28;20670;-74
2023/05/21 06:25:01;;;;;;;1.90;1.80;;;22.70;89.40;;;;;;5014657;28;20385;-75
2023/05/21 06:27:27;;;;;;;2.10;1.93;;;23.60;86.50;;;;;;5014537;28;20175;-73
2023/05/21 06:29:53;;;;;;;1.40;1.30;;;24.30;83.60;;;;;;5014667;28;20191;-75
2023/05/21 06:32:20;;;;;;;1.50;1.40;;;24.80;81.70;;;;;;5014366;28;20222;-73
2023/05/21 06:34:45;;;;;;;2.50;2.30;;;25.20;80.20;;;;;;5014449;28;20178;-73
2023/05/21 06:37:11;;;;;;;2.20;2.10;;;25.30;79.30;;;;;;5014188;28;20410;-73
2023/05/21 06:39:37;;;;;;;1.90;1.80;;;25.50;77.60;;;;;;5014425;28;20532;-74
2023/05/21 06:42:02;;;;;;;2.83;1.90;;;25.50;76.50;;;;;;5014247;28;20194;-74
2023/05/21 06:44:28;;;;;;;2.37;2.17;;;25.60;76.40;;;;;;5013230;28;20171;-74
2023/05/21 06:46:54;;;;;;;3.10;2.23;;;25.70;75.30;;;;;;5013067;28;20222;-75
2023/05/21 06:49:19;;;;;;;2.17;2.07;;;26.00;74.30;;;;;;5013647;28;20203;-75
2023/05/21 06:51:45;;;;;;;1.43;1.33;;;26.30;74.10;;;;;;5012393;28;20196;-74
2023/05/21 06:54:11;;;;;;;2.13;1.97;;;26.40;73.00;;;;;;5014116;28;20246;-75
2023/05/21 06:56:36;;;;;;;2.20;1.87;;;26.50;72.30;;;;;;5014170;28;20280;-74
2023/05/21 06:59:02;;;;;;;1.30;1.20;;;26.50;71.30;;;;;;5014451;28;20208;-74
2023/05/21 07:01:27;;;;;;;2.50;2.30;;;26.60;72.40;;;;;;5014043;28;20195;-74
2023/05/21 07:03:53;;;;;;;2.07;1.97;;;26.70;71.50;;;;;;5014172;28;20182;-75
2023/05/21 07:06:19;;;;;;;3.70;3.40;;;26.90;69.50;;;;;;5013862;28;20258;-74
2023/05/21 07:08:44;;;;;;;1.63;1.53;;;26.70;69.40;;;;;;5013824;28;20187;-73
2023/05/21 07:11:10;;;;;;;1.73;1.63;;;26.60;70.10;;;;;;5014133;28;20218;-74
2023/05/21 07:13:36;;;;;;;1.40;1.30;;;26.50;70.10;;;;;;5014342;28;20156;-74
2023/05/21 07:16:01;;;;;;;2.60;2.40;;;26.30;70.60;;;;;;5013936;28;20174;-74
2023/05/21 07:18:27;;;;;;;2.17;1.80;;;26.30;72.30;;;;;;4996610;28;20207;-74
2023/05/21 07:20:53;;;;;;;2.90;2.70;;;26.70;70.90;;;;;;5014053;28;20172;-74
2023/05/21 07:23:20;;;;;;;2.40;1.90;;;27.30;70.30;;;;;;5013846;28;20640;-73
2023/05/21 07:25:45;;;;;;;2.97;2.70;;;28.10;65.80;;;;;;5011434;28;20171;-74
2023/05/21 07:28:11;;;;;;;2.50;2.30;;;29.40;63.80;;;;;;5013313;28;20446;-75
2023/05/21 07:30:37;;;;;;;2.20;1.80;;;30.80;62.50;;;;;;5013502;28;20168;-75
2023/05/21 07:33:02;;;;;;;1.50;1.40;;;32.20;57.30;;;;;;5013504;28;20194;-75
2023/05/21 07:35:28;;;;;;;2.27;2.07;;;33.60;54.30;;;;;;5013544;28;20624;-73
2023/05/21 07:37:53;;;;;;;2.30;1.90;;;34.90;49.70;;;;;;5013800;28;20194;-73
2023/05/21 07:40:19;;;;;;;3.30;2.07;;;36.10;45.30;;;;;;5013624;28;20639;-73
2023/05/21 07:42:45;;;;;;;1.80;1.37;;;35.90;41.80;;;;;;5013369;28;20195;-75
2023/05/21 07:45:10;;;;;;;2.17;1.77;;;36.30;42.60;;;;;;5013422;28;20172;-73
2023/05/21 07:47:36;;;;;;;3.07;1.33;;;36.90;41.40;;;;;;5013110;28;20179;-73
2023/05/21 07:50:02;;;;;;;2.53;2.33;;;37.10;39.70;;;;;;5013524;28;20531;-73
2023/05/21 07:52:27;;;;;;;1.80;1.70;;;37.60;39.30;;;;;;5013395;28;20187;-74
2023/05/21 07:54:53;;;;;;;1.70;1.60;;;38.00;38.10;;;;;;5013391;28;20172;-72
2023/05/21 07:57:20;;;;;;;1.90;1.77;;;37.80;38.00;;;;;;5012938;28;20194;-73
2023/05/21 07:59:46;;;;;;;1.40;1.30;;;37.60;38.70;;;;;;5013367;28;20172;-74
2023/05/21 08:02:11;;;;;;;1.63;1.50;;;37.40;36.80;;;;;;5011340;28;20797;-71
2023/05/21 08:04:37;;;;;;;2.43;1.90;;;37.40;37.20;;;;;;5013761;28;20168;-73
2023/05/21 08:07:03;;;;;;;2.20;1.60;;;37.20;37.60;;;;;;5012905;28;20175;-72
2023/05/21 08:09:28;;;;;;;2.13;1.30;;;36.90;37.90;;;;;;5013232;28;20187;-72
2023/05/21 08:11:54;;;;;;;1.23;1.13;;;37.00;37.50;;;;;;5013173;28;20290;-72
2023/05/21 08:14:20;;;;;;;1.73;1.43;;;36.90;36.50;;;;;;5013225;28;20172;-72
2023/05/21 08:16:46;;;;;;;2.83;2.10;;;36.20;38.00;;;;;;5013207;28;20210;-73
2023/05/21 08:19:11;;;;;;;2.23;1.30;;;36.00;39.70;;;;;;5013027;28;20168;-71
2023/05/21 08:21:37;;;;;;;2.30;2.00;;;35.80;39.90;;;;;;5013086;28;20541;-73
2023/05/21 08:24:03;;;;;;;1.53;1.43;;;36.00;39.40;;;;;;5013157;28;20172;-73
2023/05/21 08:26:28;;;;;;;2.73;1.90;;;35.60;39.60;;;;;;5012749;28;20640;-71
2023/05/21 08:28:54;;;;;;;3.50;2.03;;;34.70;40.80;;;;;;5014943;28;20203;-72
2023/05/21 08:31:20;;;;;;;1.87;1.77;;;34.20;42.20;;;;;;5016745;28;20206;-71
2023/05/21 08:33:50;;;;;;;2.40;2.20;;;33.80;42.40;;;;;;5017241;28;20891;-72
2023/05/21 08:36:16;;;;;;;2.77;2.33;;;33.60;42.70;;;;;;5016455;28;20167;-72
2023/05/21 08:38:42;;;;;;;1.70;1.60;;;33.70;43.70;;;;;;5016607;28;20410;-75
2023/05/21 08:41:09;;;;;;;2.40;2.20;;;33.90;44.20;;;;;;5016716;28;20199;-73
2023/05/21 08:43:37;;;;;;;2.40;2.23;;;34.20;42.30;;;;;;5016585;28;20180;-72
2023/05/21 08:46:03;;;;;;;2.80;1.97;;;33.10;43.50;;;;;;5016272;28;20409;-72
2023/05/21 08:48:30;;;;;;;1.70;1.60;;;32.30;44.40;;;;;;5016705;28;20549;-72
2023/05/21 08:50:58;;;;;;;2.90;2.30;;;32.00;45.30;;;;;;5016786;28;20984;-73
2023/05/21 08:53:26;;;;;;;1.77;1.63;;;32.00;45.00;;;;;;5016490;28;20411;-74
2023/05/21 08:55:54;;;;;;;2.73;2.30;;;32.60;44.80;;;;;;5016338;28;20452;-75
2023/05/21 08:58:20;;;;;;;1.67;1.57;;;33.00;44.50;;;;;;5016537;28;20411;-74
2023/05/21 09:00:46;;;;;;;2.50;2.30;;;33.00;44.70;;;;;;5016526;28;20414;-74
2023/05/21 09:03:13;;;;;;;3.00;2.20;;;32.40;44.90;;;;;;5016497;28;20441;-74
2023/05/21 09:05:42;;;;;;;2.20;2.00;;;31.20;46.60;;;;;;5016324;28;20251;-74
2023/05/21 09:08:33;;;;;;;1.53;1.40;;;30.90;47.70;;;;;;5016376;28;20443;-73
2023/05/21 09:11:02;;;;;;;2.27;1.83;;;31.00;55.30;;;;;;5016219;28;20417;-73
2023/05/21 09:13:29;;;;;;;2.20;1.90;;;30.90;48.10;;;;;;5016087;28;20435;-74
2023/05/21 09:15:55;;;;;;;1.80;1.70;;;31.00;48.40;;;;;;5016126;28;20816;-74
2023/05/21 09:18:21;;;;;;;2.00;1.80;;;31.40;47.70;;;;;;5016470;28;20414;-74
2023/05/21 09:20:47;;;;;;;3.20;1.70;;;31.90;46.90;;;;;;5016078;28;20206;-73
2023/05/21 09:23:16;;;;;;;2.33;2.13;;;31.50;46.90;;;;;;5016074;28;20171;-74
2023/05/21 09:25:46;;;;;;;1.80;1.70;;;31.00;47.90;;;;;;5012851;28;20171;-73
2023/05/21 09:28:15;;;;;;;3.50;2.43;;;31.10;47.50;;;;;;5015523;28;20434;-73
2023/05/21 09:30:46;;;;;;;1.90;1.80;;;31.50;47.90;;;;;;5015139;28;20418;-73
2023/05/21 09:33:23;;;;;;;2.07;1.93;;;32.30;47.20;;;;;;5013515;28;20448;-74
2023/05/21 09:35:49;;;;;;;2.83;2.53;;;32.70;45.40;;;;;;5015507;28;20494;-73
2023/05/21 09:38:15;;;;;;;3.10;2.10;;;33.20;45.10;;;;;;5014892;28;20410;-74
2023/05/21 09:40:45;;;;;;;3.53;1.83;;;33.50;44.30;;;;;;5013108;28;20921;-75
2023/05/21 09:43:14;;;;;;;2.20;2.00;;;33.50;44.70;;;;;;5015786;28;20430;-74
2023/05/21 09:45:50;;;;;;;3.07;2.77;;;33.60;45.20;;;;;;5015812;28;20439;-74
2023/05/21 09:48:16;;;;;;;2.13;2.00;;;33.90;45.00;;;;;;5015419;28;20441;-74
2023/05/21 09:50:41;;;;;;;3.00;2.37;;;34.30;44.00;;;;;;5015556;28;20417;-75
2023/05/21 09:53:14;;;;;;;1.80;1.70;;;34.60;43.40;;;;;;5015533;28;20198;-74
2023/05/21 09:55:40;;;;;;;2.70;2.37;;;35.00;42.90;;;;;;5015387;28;20203;-75
2023/05/21 09:58:06;;;;;;;2.70;1.73;;;35.10;42.00;;;;;;5015726;28;20986;-74
2023/05/21 10:00:32;;;;;;;1.77;1.67;;;34.80;42.20;;;;;;5015094;28;20929;-74
2023/05/21 10:03:07;;;;;;;1.50;1.40;;;34.10;43.70;;;;;;5015298;28;20426;-74
2023/05/21 10:05:33;;;;;;;2.83;2.63;;;33.40;44.00;;;;;;5015073;28;20409;-73
2023/05/21 10:08:01;;;;;;;3.90;1.10;;;33.30;45.40;;;;;;5013912;28;20849;-73
2023/05/21 10:10:28;;;;;;;3.07;1.43;;;33.60;41.00;;;;;;5013766;28;20695;-74
2023/05/21 10:12:58;;;;;;;2.90;2.17;;;33.80;42.20;;;;;;5014383;28;20439;-74
2023/05/21 10:15:25;;;;;;;1.33;1.23;;;33.60;40.50;;;;;;5013925;28;20887;-73
2023/05/21 10:17:52;;;;;;;1.47;1.37;;;33.00;41.30;;;;;;5014138;28;20894;-74
2023/05/21 10:20:18;;;;;;;2.10;1.20;;;31.80;41.50;;;;;;5014230;28;20406;-74
2023/05/21 10:22:45;;;;;;;1.60;1.50;;;30.70;41.60;;;;;;5014143;28;20433;-74
2023/05/21 10:25:12;;;;;;;1.30;1.20;;;29.90;45.10;;;;;;5014104;28;20933;-74
2023/05/21 10:27:38;;;;;;;1.30;1.20;;;29.90;43.80;;;;;;4996605;28;20810;-74
2023/05/21 10:30:05;;;;;;;1.50;1.40;;;30.10;43.20;;;;;;5014527;28;20402;-74
2023/05/21 10:32:31;;;;;;;1.97;1.50;;;30.30;44.10;;;;;;5014371;28;20469;-73
2023/05/21 10:34:58;;;;;;;1.30;1.20;;;30.40;43.20;;;;;;5014541;28;20493;-75
2023/05/21 10:37:25;;;;;;;0.90;0.90;;;30.70;41.00;;;;;;5014404;28;20418;-73
2023/05/21 10:39:51;;;;;;;3.80;1.93;;;30.80;42.00;;;;;;5014496;28;20806;-73
2023/05/21 10:42:28;;;;;;;1.60;1.50;;;30.80;43.40;;;;;;5014502;28;20419;-74
2023/05/21 10:45:12;;;;;;;1.03;0.93;;;30.40;44.70;;;;;;5014345;28;20167;-73
2023/05/21 10:47:57;;;;;;;1.27;1.17;;;30.20;44.80;;;;;;5014185;28;20398;-74
2023/05/21 10:50:31;;;;;;;1.17;0.87;;;29.80;43.40;;;;;;5014636;28;20410;-74
2023/05/21 10:53:16;;;;;;;2.67;1.10;;;29.20;42.70;;;;;;5013905;28;20410;-74
2023/05/21 10:55:45;;;;;;;2.13;1.50;;;29.20;44.60;;;;;;5014100;28;20776;-74
2023/05/21 10:58:50;;;;;;;1.33;1.20;;;29.30;46.70;;;;;;5014239;28;20461;-74
2023/05/21 11:01:18;;;;;;;1.77;1.13;;;28.90;46.80;;;;;;5013359;28;20434;-73
2023/05/21 11:03:45;;;;;;;1.40;1.13;;;28.70;43.70;;;;;;5014005;28;20410;-74
2023/05/21 11:06:23;;;;;;;1.30;1.20;;;28.70;45.10;;;;;;5013823;28;20414;-74
2023/05/21 11:08:52;;;;;;;2.20;0.93;;;28.90;46.40;;;;;;5014010;28;20461;-74
2023/05/21 11:11:41;;;;;;;2.00;1.90;;;28.80;46.10;;;;;;5014340;28;20445;-74
2023/05/21 11:14:30;;;;;;;1.80;1.40;;;28.40;45.40;;;;;;5013922;28;20497;-74
2023/05/21 11:17:03;;;;;;;2.77;1.63;;;28.20;47.80;;;;;;5013624;28;20482;-74
2023/05/21 11:19:40;;;;;;;1.60;1.50;;;28.00;50.80;;;;;;5013769;28;20469;-73
2023/05/21 11:22:25;;;;;;;2.00;1.67;;;27.20;50.10;;;;;;5013978;28;20796;-73
2023/05/21 11:24:52;;;;;;;1.50;1.40;;;26.90;52.80;;;;;;5013952;28;20406;-73
2023/05/21 11:27:35;;;;;;;2.27;2.07;;;26.70;52.90;;;;;;5013676;28;20732;-73
2023/05/21 11:30:09;;;;;;;1.57;1.47;;;26.40;51.40;;;;;;5013670;28;20450;-74
2023/05/21 11:32:39;;;;;;;2.73;1.87;;;26.50;53.40;;;;;;5013659;28;20430;-74
2023/05/21 11:35:05;;;;;;;2.17;2.07;;;26.50;53.20;;;;;;5013585;28;20410;-73
2023/05/21 11:37:33;;;;;;;1.80;1.27;;;26.40;54.20;;;;;;5013497;28;20909;-74
2023/05/21 11:40:19;;;;;;;1.67;1.57;;;26.30;53.40;;;;;;5013464;28;20415;-74
2023/05/21 11:42:50;;;;;;;1.10;1.10;;;26.20;54.00;;;;;;5013166;28;20434;-73
2023/05/21 11:45:21;;;;;;;1.73;1.63;;;26.20;54.00;;;;;;5011787;28;20778;-74
2023/05/21 11:47:48;;;;;;;1.10;1.10;;;26.20;51.90;;;;;;5013758;28;20406;-74
2023/05/21 11:50:15;;;;;;;1.97;1.40;;;26.10;51.90;;;;;;5012723;28;20442;-73
2023/05/21 11:52:41;;;;;;;1.00;0.90;;;26.40;51.40;;;;;;5011673;28;20401;-73
2023/05/21 11:55:08;;;;;;;1.43;1.23;;;26.60;51.20;;;;;;5013952;28;20745;-74
2023/05/21 11:57:34;;;;;;;2.33;2.13;;;27.00;51.90;;;;;;5013446;28;20405;-73
2023/05/21 12:00:07;;;;;;;0.80;0.80;;;26.60;51.50;;;;;;5013350;28;20393;-73
2023/05/21 12:02:33;;;;;;;0.97;0.97;;;26.60;49.60;;;;;;5013380;28;20191;-73
2023/05/21 12:04:59;;;;;;;1.30;1.20;;;26.30;49.90;;;;;;5017382;28;20406;-73
2023/05/21 12:07:30;;;;;;;1.97;1.83;;;26.10;48.80;;;;;;5016626;28;20207;-73
2023/05/21 12:09:56;;;;;;;1.13;1.03;;;25.90;48.80;;;;;;5017149;28;20207;-73
2023/05/21 12:12:25;;;;;;;1.83;1.70;;;25.70;49.90;;;;;;5015238;28;20424;-73
2023/05/21 12:14:53;;;;;;;1.67;1.30;;;25.70;50.90;;;;;;5016950;28;20926;-73
2023/05/21 12:17:23;;;;;;;1.03;0.93;;;25.80;50.80;;;;;;5016810;28;20402;-73
2023/05/21 12:19:53;;;;;;;1.17;1.07;;;25.70;51.10;;;;;;5014879;28;20418;-74
2023/05/21 12:22:19;;;;;;;2.33;2.23;;;25.80;52.90;;;;;;5016792;28;20433;-70
2023/05/21 12:24:45;;;;;;;1.03;1.03;;;25.70;51.90;;;;;;5016917;28;20451;-71
2023/05/21 12:27:12;;;;;;;5.73;2.97;;;25.70;51.90;;;;;;5015023;28;20635;-70
2023/05/21 12:29:41;;;;;;;1.47;1.37;;;25.70;56.50;;;;;;5017281;28;20462;-70
2023/05/21 12:32:08;;;;;;;2.40;1.63;;;25.60;57.90;;;;;;5015747;28;20430;-69
2023/05/21 12:34:44;;;;;;;2.10;1.90;;;25.70;57.10;;;;;;5014599;28;20381;-70
2023/05/21 12:37:31;;;;;;;2.50;1.50;;;25.70;57.30;;;;;;5015875;28;20402;-70
2023/05/21 12:40:03;;;;;;;1.90;1.27;;;25.60;55.10;;;;;;5015979;28;20472;-69
2023/05/21 12:42:33;;;;;;;2.00;1.70;;;25.30;54.60;;;;;;5015861;28;20434;-70
2023/05/21 12:45:01;;;;;;;1.67;1.33;;;25.20;54.80;;;;;;5015896;28;20389;-69
2023/05/21 12:47:27;;;;;;;2.00;1.30;;;25.10;55.30;;;;;;5016308;28;20409;-69
2023/05/21 12:49:56;;;;;;;1.20;1.10;;;25.10;56.00;;;;;;5016461;28;20554;-70